Terminal Aerodrome Forecast
Issued by NWS

Home | Current Version | Previous Version | Text Only | Print | Product List | Glossary On
Versions: 1 2 3 4 5 6 7 8 9 10 11 12 13 14 15 16 17 18 19 20 21 22 23 24 25
935
FTUS42 KJAX 211734
TAFVQQ
TAF
KVQQ 211734Z 2118/2218 13008KT 6SM -RA SCT015 SCT025 OVC070
      TEMPO 2118/2120 4SM SHRA BR BKN025
     FM212000 12008G14KT 5SM -RA BKN025 BKN070 BKN150
     FM212300 11008KT P6SM VCSH SCT030 BKN090 OVC200=

USA.gov is the U.S. government's official web portal to all federal, state and local government web resources and services.